Time;durP1;ratioP1;P1;durP2;ratioP2;P2;SDS_P1;SDS_P2;PMS_P1;PMS_P2;Temp;Humidity;BMP_temperature;BMP_pressure;BME280_temperature;BME280_humidity;BME280_pressure;Samples;Min_cycle;Max_cycle;Signal;HPM_P1;HPM_P2
2022/09/12 00:01:12;;;;;;;13.98;12.57;;;14.50;99.90;;;;;;5022544;28;20052;-93
2022/09/12 00:03:38;;;;;;;13.73;12.20;;;14.40;99.90;;;;;;5014943;28;20046;-91
2022/09/12 00:06:15;;;;;;;13.60;12.30;;;14.40;99.90;;;;;;5007703;28;20156;-92
2022/09/12 00:08:40;;;;;;;12.88;11.13;;;14.50;99.90;;;;;;4992589;28;20379;-91
2022/09/12 00:11:08;;;;;;;11.68;10.48;;;14.30;99.90;;;;;;5005247;28;20038;-91
2022/09/12 00:13:35;;;;;;;12.98;11.75;;;14.40;99.90;;;;;;4992843;28;20045;-92
2022/09/12 00:16:00;;;;;;;13.93;12.40;;;14.40;99.90;;;;;;5006430;28;20064;-90
2022/09/12 00:18:26;;;;;;;12.85;11.55;;;14.30;99.90;;;;;;4998772;28;20034;-92
2022/09/12 00:20:52;;;;;;;13.13;11.82;;;14.30;99.90;;;;;;5008048;28;20077;-91
2022/09/12 00:23:17;;;;;;;15.25;13.68;;;14.20;99.90;;;;;;5008219;28;20049;-92
2022/09/12 00:25:44;;;;;;;16.23;14.65;;;14.30;99.90;;;;;;5009806;28;20050;-92
2022/09/12 00:28:12;;;;;;;15.88;14.35;;;14.20;99.90;;;;;;4992115;28;20045;-90
2022/09/12 00:30:42;;;;;;;16.40;14.70;;;14.20;99.90;;;;;;4996971;28;20046;-91
2022/09/12 00:33:09;;;;;;;16.17;14.57;;;14.20;99.90;;;;;;5019070;28;20039;-90
2022/09/12 00:35:40;;;;;;;15.30;13.73;;;14.20;99.90;;;;;;5004699;28;20107;-91
2022/09/12 00:38:06;;;;;;;16.98;15.25;;;14.20;99.90;;;;;;5001756;28;20049;-90
2022/09/12 00:40:31;;;;;;;17.27;15.38;;;14.10;99.90;;;;;;5028002;28;20038;-91
2022/09/12 00:42:57;;;;;;;18.98;17.17;;;14.10;99.90;;;;;;5036312;28;20042;-91
2022/09/12 00:45:27;;;;;;;19.15;17.35;;;14.10;99.90;;;;;;5026904;28;20041;-92
2022/09/12 00:47:56;;;;;;;20.25;18.35;;;14.00;99.90;;;;;;5010309;28;20050;-92
2022/09/12 00:50:21;;;;;;;21.85;19.65;;;14.10;99.90;;;;;;4976732;28;20046;-91
2022/09/12 00:52:56;;;;;;;20.33;18.42;;;14.10;99.90;;;;;;4992583;28;20402;-92
2022/09/12 00:55:24;;;;;;;19.83;18.02;;;14.20;99.90;;;;;;4996043;28;20049;-92
2022/09/12 00:58:15;;;;;;;20.50;18.60;;;14.10;99.90;;;;;;5022847;28;20052;-91
2022/09/12 01:00:41;;;;;;;19.73;17.88;;;14.10;99.90;;;;;;4993458;28;20065;-91
2022/09/12 01:03:11;;;;;;;19.70;17.70;;;14.10;99.90;;;;;;5007504;28;20474;-90
2022/09/12 01:05:43;;;;;;;20.00;17.95;;;14.10;99.90;;;;;;4998628;28;20089;-92
2022/09/12 01:08:09;;;;;;;20.83;18.60;;;14.10;99.90;;;;;;5006446;28;20060;-90
2022/09/12 01:10:37;;;;;;;20.95;18.95;;;14.00;99.90;;;;;;5008614;28;20133;-91
2022/09/12 01:13:06;;;;;;;19.40;17.58;;;14.00;99.90;;;;;;4991975;28;20038;-91
2022/09/12 01:15:32;;;;;;;19.63;17.73;;;14.00;99.90;;;;;;4999977;28;20105;-90
2022/09/12 01:18:33;;;;;;;18.67;16.88;;;14.00;99.90;;;;;;5009787;28;20112;-92
2022/09/12 01:21:03;;;;;;;18.77;17.02;;;14.00;99.90;;;;;;4996854;28;20127;-91
2022/09/12 01:23:40;;;;;;;20.02;18.05;;;13.90;99.90;;;;;;5012970;28;20038;-91
2022/09/12 01:26:45;;;;;;;19.88;17.88;;;13.90;99.90;;;;;;4994098;28;20057;-91
2022/09/12 01:29:17;;;;;;;18.40;16.50;;;13.90;99.90;;;;;;4981241;28;20062;-90
2022/09/12 01:32:10;;;;;;;18.95;17.13;;;13.90;99.90;;;;;;5019887;28;20077;-90
2022/09/12 01:34:55;;;;;;;21.00;18.90;;;13.90;99.90;;;;;;5016685;28;20042;-91
2022/09/12 01:37:51;;;;;;;22.05;19.85;;;13.90;99.90;;;;;;5011952;28;20128;-92
2022/09/12 01:40:29;;;;;;;21.10;19.10;;;13.90;99.90;;;;;;4978891;28;20089;-90
2022/09/12 01:43:00;;;;;;;22.27;20.17;;;13.90;99.90;;;;;;4990024;28;20042;-91
2022/09/12 01:45:39;;;;;;;21.75;19.55;;;13.90;99.90;;;;;;4976830;28;20050;-91
2022/09/12 01:48:16;;;;;;;21.88;19.77;;;13.80;99.90;;;;;;4976174;28;20037;-91
2022/09/12 01:50:59;;;;;;;23.92;21.60;;;13.90;99.90;;;;;;4995374;28;20153;-91
2022/09/12 01:53:32;;;;;;;23.75;21.35;;;13.90;99.90;;;;;;4971100;28;20144;-90
2022/09/12 01:56:07;;;;;;;24.40;21.98;;;13.70;99.90;;;;;;5000181;28;20129;-90
2022/09/12 01:58:41;;;;;;;25.23;22.83;;;13.80;99.90;;;;;;4962613;28;20218;-90
2022/09/12 02:01:32;;;;;;;24.65;22.38;;;13.80;99.90;;;;;;4978158;28;20049;-91
2022/09/12 02:04:12;;;;;;;26.63;24.03;;;13.80;99.90;;;;;;5007731;28;20047;-91
2022/09/12 02:06:51;;;;;;;26.13;23.63;;;13.80;99.90;;;;;;4977998;28;20054;-91
2022/09/12 02:09:41;;;;;;;28.75;25.95;;;13.80;99.90;;;;;;5007209;28;20049;-92
2022/09/12 02:12:10;;;;;;;26.47;23.83;;;13.80;99.90;;;;;;4999222;28;20454;-90
2022/09/12 02:14:41;;;;;;;27.80;25.10;;;13.70;99.90;;;;;;4961974;28;20402;-91
2022/09/12 02:17:11;;;;;;;27.98;25.10;;;13.80;99.90;;;;;;4986355;28;20103;-90
2022/09/12 02:19:45;;;;;;;28.58;25.77;;;13.90;99.90;;;;;;5008925;28;20122;-90
2022/09/12 02:22:18;;;;;;;27.83;25.13;;;13.80;99.90;;;;;;4992952;28;20125;-90
2022/09/12 02:24:49;;;;;;;30.92;27.92;;;13.80;99.90;;;;;;4985525;28;20069;-90
2022/09/12 02:27:23;;;;;;;;;;;13.80;99.90;;;;;;4982600;28;20046;-90
2022/09/12 02:29:50;;;;;;;28.83;25.95;;;13.70;99.90;;;;;;5009147;28;19928;-91
2022/09/12 02:32:29;;;;;;;29.00;26.10;;;13.70;99.90;;;;;;5006177;28;20157;-91
2022/09/12 02:35:08;;;;;;;30.08;27.08;;;13.70;99.90;;;;;;5007603;28;20073;-91
2022/09/12 02:38:04;;;;;;;30.73;27.55;;;13.70;99.90;;;;;;5009410;28;20050;-91
2022/09/12 02:40:32;;;;;;;30.58;27.58;;;13.70;99.90;;;;;;4993306;28;20166;-90
2022/09/12 02:42:58;;;;;;;32.08;28.83;;;13.70;99.90;;;;;;4994647;28;20038;-91
2022/09/12 02:45:24;;;;;;;31.60;28.42;;;13.70;99.90;;;;;;5012271;28;20049;-91
2022/09/12 02:48:18;;;;;;;32.03;28.67;;;13.70;99.90;;;;;;4999816;28;20180;-90
2022/09/12 02:50:44;;;;;;;32.88;29.40;;;13.60;99.90;;;;;;5008328;28;20133;-91
2022/09/12 02:53:11;;;;;;;33.50;30.10;;;13.60;99.90;;;;;;5009493;28;20072;-90
2022/09/12 02:55:40;;;;;;;34.53;30.83;;;13.60;99.90;;;;;;5003334;28;20402;-90
2022/09/12 02:58:14;;;;;;;32.95;29.55;;;13.60;99.90;;;;;;4996382;28;20042;-90
2022/09/12 03:01:11;;;;;;;34.05;30.55;;;13.60;99.90;;;;;;5010356;28;20103;-91
2022/09/12 03:03:55;;;;;;;34.10;30.58;;;13.60;99.90;;;;;;5010921;28;20053;-89
2022/09/12 03:06:40;;;;;;;34.10;30.63;;;13.60;99.90;;;;;;5005643;28;20062;-91
2022/09/12 03:09:05;;;;;;;35.45;31.17;;;13.60;99.90;;;;;;4998683;28;20042;-90
2022/09/12 03:11:55;;;;;;;35.30;31.60;;;13.60;99.90;;;;;;5007853;28;20042;-91
2022/09/12 03:15:02;;;;;;;33.75;30.25;;;13.50;99.90;;;;;;4993433;28;20474;-90
2022/09/12 03:17:43;;;;;;;33.67;30.02;;;13.50;99.90;;;;;;5003947;28;20124;-90
2022/09/12 03:20:19;;;;;;;35.47;31.85;;;13.50;99.90;;;;;;5004668;28;20049;-90
2022/09/12 03:23:04;;;;;;;33.10;29.52;;;13.40;99.90;;;;;;4991861;28;20056;-89
2022/09/12 03:25:43;;;;;;;35.03;31.38;;;13.40;99.90;;;;;;5002568;28;20055;-90
2022/09/12 03:28:12;;;;;;;34.08;30.48;;;13.40;99.90;;;;;;4989628;28;20042;-89
2022/09/12 03:30:40;;;;;;;34.88;31.17;;;13.40;99.90;;;;;;5009058;28;20052;-90
2022/09/12 03:33:09;;;;;;;36.40;32.13;;;13.40;99.90;;;;;;5005153;28;20117;-89
2022/09/12 03:35:35;;;;;;;37.65;33.65;;;13.40;99.90;;;;;;5009247;28;20078;-89
2022/09/12 03:38:00;;;;;;;37.70;33.63;;;13.40;99.90;;;;;;5008973;28;20309;-89
2022/09/12 03:40:26;;;;;;;37.65;33.65;;;13.40;99.90;;;;;;5001597;28;20072;-90
2022/09/12 03:42:52;;;;;;;39.75;34.58;;;13.40;99.90;;;;;;4996333;28;20058;-89
2022/09/12 03:45:18;;;;;;;37.22;33.33;;;13.30;99.90;;;;;;4990850;28;20050;-89
2022/09/12 03:47:43;;;;;;;37.00;33.05;;;13.30;99.90;;;;;;4988180;28;20038;-88
2022/09/12 03:50:09;;;;;;;36.33;32.42;;;13.30;99.90;;;;;;5002799;28;20348;-88
2022/09/12 03:52:35;;;;;;;35.60;31.77;;;13.30;99.90;;;;;;4992932;28;20046;-88
2022/09/12 03:55:01;;;;;;;37.05;33.03;;;13.30;99.90;;;;;;5012732;28;20045;-89
2022/09/12 03:57:26;;;;;;;34.40;30.70;;;13.30;99.90;;;;;;5018104;28;20544;-89
2022/09/12 03:59:52;;;;;;;34.95;31.00;;;13.30;99.90;;;;;;5008169;28;20037;-89
2022/09/12 04:02:18;;;;;;;36.17;32.35;;;13.30;99.90;;;;;;4987489;28;20042;-89
2022/09/12 04:04:46;;;;;;;36.90;32.97;;;13.30;99.90;;;;;;5007031;28;20128;-89
2022/09/12 04:07:12;;;;;;;33.25;29.75;;;13.20;99.90;;;;;;5017451;28;20490;-89
2022/09/12 04:09:38;;;;;;;35.13;30.90;;;13.30;99.90;;;;;;4991311;28;20052;-88
2022/09/12 04:12:04;;;;;;;35.90;32.10;;;13.20;99.90;;;;;;4999548;28;20103;-88
2022/09/12 04:14:30;;;;;;;35.85;31.95;;;13.20;99.90;;;;;;5008783;28;20034;-88
2022/09/12 04:16:56;;;;;;;37.17;33.20;;;13.20;99.90;;;;;;4990324;28;20564;-88
2022/09/12 04:19:22;;;;;;;34.63;31.00;;;13.20;99.90;;;;;;4989098;28;20129;-88
2022/09/12 04:21:48;;;;;;;37.42;32.58;;;13.30;99.90;;;;;;4987649;28;20047;-88
2022/09/12 04:24:13;;;;;;;37.03;33.03;;;13.20;99.90;;;;;;4978744;28;20112;-88
2022/09/12 04:26:39;;;;;;;38.17;33.80;;;13.10;99.90;;;;;;5007475;28;20517;-87
2022/09/12 04:29:04;;;;;;;37.00;32.90;;;13.20;99.90;;;;;;4986664;28;20467;-88
2022/09/12 04:31:30;;;;;;;38.38;34.15;;;13.20;99.90;;;;;;5005866;28;20045;-88
2022/09/12 04:33:58;;;;;;;43.42;35.60;;;13.20;99.90;;;;;;4994310;28;20537;-89
2022/09/12 04:36:25;;;;;;;38.35;32.80;;;13.10;99.90;;;;;;5003596;28;20054;-88
2022/09/12 04:38:51;;;;;;;40.13;34.25;;;13.20;99.90;;;;;;4997816;28;20117;-88
2022/09/12 04:41:22;;;;;;;40.35;34.90;;;13.10;99.90;;;;;;4994043;28;20129;-88
2022/09/12 04:43:52;;;;;;;40.72;35.13;;;13.20;99.90;;;;;;5005939;28;20041;-88
2022/09/12 04:46:19;;;;;;;43.57;36.27;;;13.20;99.90;;;;;;5002954;28;20080;-87
2022/09/12 04:48:46;;;;;;;42.20;36.22;;;13.10;99.90;;;;;;4997880;28;20054;-88
2022/09/12 04:51:14;;;;;;;40.72;35.55;;;13.20;99.90;;;;;;4990632;28;20131;-88
2022/09/12 04:53:41;;;;;;;42.22;35.88;;;13.20;99.90;;;;;;4989998;28;20042;-89
2022/09/12 04:56:08;;;;;;;41.90;36.17;;;13.20;99.90;;;;;;4994375;28;20103;-88
2022/09/12 04:58:34;;;;;;;42.75;36.90;;;13.20;99.90;;;;;;4996060;28;20391;-90
2022/09/12 05:01:08;;;;;;;45.25;37.85;;;13.20;99.90;;;;;;4993770;28;20030;-90
2022/09/12 05:03:34;;;;;;;44.45;36.67;;;13.20;99.90;;;;;;5011435;28;20056;-89
2022/09/12 05:06:06;;;;;;;46.50;36.92;;;13.20;99.90;;;;;;5012511;28;20054;-88
2022/09/12 05:08:34;;;;;;;42.72;36.20;;;13.20;99.90;;;;;;5009032;28;20030;-88
2022/09/12 05:11:09;;;;;;;45.97;37.97;;;13.30;99.90;;;;;;5006232;28;20050;-88
2022/09/12 05:13:35;;;;;;;48.25;40.28;;;13.40;99.90;;;;;;5001779;28;20494;-88
2022/09/12 05:16:03;;;;;;;45.67;38.10;;;13.40;99.90;;;;;;5009754;28;20087;-89
2022/09/12 05:18:31;;;;;;;47.70;40.53;;;13.60;99.90;;;;;;4992841;28;20038;-87
2022/09/12 05:21:03;;;;;;;52.28;42.75;;;13.60;99.90;;;;;;5008251;28;20045;-88
2022/09/12 05:23:29;;;;;;;50.83;41.88;;;13.60;99.90;;;;;;5008348;28;20053;-90
2022/09/12 05:25:57;;;;;;;49.50;40.60;;;13.70;99.90;;;;;;5010095;28;20076;-88
2022/09/12 05:28:24;;;;;;;51.20;42.33;;;13.80;99.90;;;;;;5001356;28;20042;-88
2022/09/12 05:31:03;;;;;;;51.03;42.67;;;13.90;99.90;;;;;;4997669;28;20045;-90
2022/09/12 05:33:30;;;;;;;54.67;44.53;;;13.90;99.90;;;;;;5011372;28;20065;-89
2022/09/12 05:35:56;;;;;;;52.60;43.58;;;14.00;99.90;;;;;;5001627;28;20057;-89
2022/09/12 05:38:23;;;;;;;51.72;43.17;;;14.10;99.90;;;;;;4999422;28;20409;-88
2022/09/12 05:40:50;;;;;;;55.42;43.30;;;14.10;99.90;;;;;;4990159;28;20039;-90
2022/09/12 05:43:15;;;;;;;53.55;42.30;;;14.20;99.90;;;;;;4995034;28;20058;-89
2022/09/12 05:45:41;;;;;;;50.70;41.78;;;14.20;99.90;;;;;;5002200;28;20034;-91
2022/09/12 05:48:07;;;;;;;52.95;43.17;;;14.20;99.90;;;;;;5016929;28;20043;-90
2022/09/12 05:50:33;;;;;;;50.75;41.40;;;14.30;99.90;;;;;;5014606;28;20080;-90
2022/09/12 05:52:59;;;;;;;51.30;42.17;;;14.40;99.90;;;;;;4997637;28;20057;-90
2022/09/12 05:55:24;;;;;;;47.50;40.08;;;14.40;99.90;;;;;;4992829;28;20079;-91
2022/09/12 05:57:50;;;;;;;50.78;42.85;;;14.60;99.90;;;;;;4994889;28;20034;-91
2022/09/12 06:00:17;;;;;;;48.15;39.83;;;14.50;99.90;;;;;;5000563;28;20494;-90
2022/09/12 06:02:43;;;;;;;48.95;39.40;;;14.60;99.90;;;;;;5008037;28;20038;-90
2022/09/12 06:05:09;;;;;;;50.10;40.33;;;14.60;99.90;;;;;;5015097;28;20497;-90
2022/09/12 06:07:35;;;;;;;48.38;39.70;;;14.60;99.90;;;;;;4995222;28;20149;-90
2022/09/12 06:10:02;;;;;;;46.33;38.85;;;14.70;99.90;;;;;;5004378;28;20041;-93
2022/09/12 06:12:29;;;;;;;49.03;40.50;;;14.70;99.90;;;;;;5002374;28;20423;-89
2022/09/12 06:14:55;;;;;;;45.85;39.35;;;14.70;99.90;;;;;;5001759;28;20092;-91
2022/09/12 06:17:21;;;;;;;45.85;38.42;;;14.70;99.90;;;;;;4994919;28;20046;-91
2022/09/12 06:19:48;;;;;;;46.78;37.63;;;14.70;99.90;;;;;;5011993;28;20137;-93
2022/09/12 06:22:18;;;;;;;43.35;37.35;;;14.70;99.90;;;;;;4999022;28;20498;-93
2022/09/12 06:24:43;;;;;;;44.90;37.63;;;14.80;99.90;;;;;;5015407;28;20045;-93
2022/09/12 06:27:09;;;;;;;44.47;37.50;;;14.80;99.90;;;;;;5021391;28;20313;-93
2022/09/12 06:29:35;;;;;;;50.60;40.70;;;14.90;99.90;;;;;;4986120;28;20049;-92
2022/09/12 06:32:01;;;;;;;44.38;37.67;;;15.00;99.90;;;;;;4992030;28;20497;-90
2022/09/12 06:34:26;;;;;;;46.03;37.67;;;14.90;99.90;;;;;;5018979;28;20038;-91
2022/09/12 06:36:52;;;;;;;48.75;39.53;;;15.00;99.90;;;;;;5013170;28;20458;-92
2022/09/12 06:39:20;;;;;;;47.13;38.85;;;14.90;99.90;;;;;;4995770;28;20085;-92
2022/09/12 06:41:48;;;;;;;47.47;38.33;;;15.00;99.90;;;;;;5006105;28;20062;-91
2022/09/12 06:44:16;;;;;;;45.70;38.88;;;15.10;99.90;;;;;;5014076;28;20084;-94
2022/09/12 06:46:43;;;;;;;44.45;37.60;;;15.10;99.90;;;;;;5012687;28;20085;-92
2022/09/12 06:49:09;;;;;;;44.38;38.13;;;15.10;99.90;;;;;;4997877;28;20556;-93
2022/09/12 06:51:37;;;;;;;45.13;37.22;;;15.30;99.90;;;;;;5000100;28;20038;-92
2022/09/12 06:54:04;;;;;;;46.58;38.33;;;15.20;99.90;;;;;;4993595;28;20038;-91
2022/09/12 06:56:30;;;;;;;43.65;36.85;;;15.30;99.90;;;;;;5001715;28;20073;-92
2022/09/12 06:58:57;;;;;;;45.80;37.80;;;15.30;99.90;;;;;;5025619;28;20034;-91
2022/09/12 07:01:29;;;;;;;46.45;38.15;;;15.30;99.90;;;;;;4987197;28;20045;-89
2022/09/12 07:03:58;;;;;;;46.42;37.22;;;15.30;99.90;;;;;;5030282;28;20064;-92
2022/09/12 07:06:35;;;;;;;47.35;39.25;;;15.40;99.90;;;;;;5027219;28;20057;-92
2022/09/12 07:09:03;;;;;;;43.63;37.15;;;15.40;99.90;;;;;;4982945;28;20414;-92
2022/09/12 07:11:32;;;;;;;47.42;36.83;;;15.40;99.90;;;;;;5005848;28;20060;-91
2022/09/12 07:13:59;;;;;;;43.45;35.88;;;15.50;99.90;;;;;;4991788;28;20057;-94
2022/09/12 07:16:25;;;;;;;42.60;35.28;;;15.50;99.90;;;;;;4993940;28;20038;-93
2022/09/12 07:18:56;;;;;;;43.63;36.50;;;15.50;99.90;;;;;;5010498;28;20088;-92
2022/09/12 07:21:21;;;;;;;43.55;36.83;;;15.60;99.90;;;;;;4997532;28;20093;-91
2022/09/12 07:23:48;;;;;;;46.22;36.42;;;15.60;99.90;;;;;;5003183;28;20073;-92
2022/09/12 07:26:15;;;;;;;44.65;36.25;;;15.70;99.90;;;;;;4990317;28;20107;-91
2022/09/12 07:28:41;;;;;;;45.90;36.58;;;15.70;99.90;;;;;;4995943;28;20406;-90
2022/09/12 07:31:14;;;;;;;42.60;33.72;;;15.70;99.90;;;;;;4999841;28;20065;-91
2022/09/12 07:33:41;;;;;;;39.65;33.72;;;15.80;99.90;;;;;;5008390;28;20080;-89
2022/09/12 07:36:10;;;;;;;41.60;33.80;;;15.80;99.90;;;;;;5007876;28;20045;-90
2022/09/12 07:38:40;;;;;;;40.58;33.17;;;15.80;99.90;;;;;;5019267;28;20042;-91
2022/09/12 07:41:18;;;;;;;39.05;32.70;;;16.00;99.90;;;;;;4993231;28;20077;-92
2022/09/12 07:43:44;;;;;;;39.35;33.20;;;16.00;99.90;;;;;;4998215;28;20038;-92
2022/09/12 07:46:10;;;;;;;39.30;32.75;;;16.20;99.90;;;;;;4997925;28;20120;-93
2022/09/12 07:48:38;;;;;;;38.88;31.48;;;16.10;99.90;;;;;;4996287;28;20099;-91
2022/09/12 07:51:06;;;;;;;38.97;32.35;;;16.20;99.90;;;;;;4989920;28;20411;-92
2022/09/12 07:53:37;;;;;;;39.03;32.60;;;16.30;99.90;;;;;;4988046;28;20049;-93
2022/09/12 07:56:04;;;;;;;39.47;32.58;;;16.40;99.90;;;;;;4991142;28;20053;-92
2022/09/12 07:58:31;;;;;;;36.00;30.77;;;16.50;99.90;;;;;;4989168;28;20046;-90
2022/09/12 08:01:27;;;;;;;36.17;30.67;;;16.50;99.90;;;;;;5010249;28;20038;-90
2022/09/12 08:03:57;;;;;;;34.53;29.52;;;16.50;99.90;;;;;;5003276;28;20098;-89
2022/09/12 08:06:24;;;;;;;35.15;30.25;;;16.50;99.90;;;;;;5003927;28;20085;-89
2022/09/12 08:08:52;;;;;;;36.92;31.90;;;16.60;99.90;;;;;;5027712;28;20056;-89
2022/09/12 08:11:19;;;;;;;35.63;30.83;;;16.60;99.90;;;;;;5001777;28;20042;-90
2022/09/12 08:13:46;;;;;;;35.97;30.90;;;16.70;99.90;;;;;;4994406;28;20046;-89
2022/09/12 08:16:14;;;;;;;37.00;31.17;;;16.80;99.90;;;;;;5009659;28;20050;-89
2022/09/12 08:18:40;;;;;;;34.25;30.48;;;16.80;99.90;;;;;;5010983;28;20437;-89
2022/09/12 08:21:11;;;;;;;35.65;30.60;;;16.80;99.90;;;;;;5009682;28;20060;-90
2022/09/12 08:23:37;;;;;;;38.53;31.55;;;16.90;99.90;;;;;;4993031;28;20418;-89
2022/09/12 08:26:04;;;;;;;33.42;29.80;;;16.90;99.90;;;;;;4988812;28;20056;-90
2022/09/12 08:28:31;;;;;;;34.75;30.67;;;17.00;99.90;;;;;;5010268;28;20127;-91
2022/09/12 08:31:05;;;;;;;35.95;29.85;;;17.00;99.90;;;;;;5005408;28;20041;-91
2022/09/12 08:33:32;;;;;;;36.22;30.08;;;17.10;99.90;;;;;;5009639;28;20063;-91
2022/09/12 08:36:12;;;;;;;34.88;29.23;;;17.20;99.90;;;;;;5001914;28;20045;-93
2022/09/12 08:38:41;;;;;;;34.35;29.25;;;17.20;99.90;;;;;;5028826;28;20050;-90
2022/09/12 08:41:54;;;;;;;34.90;30.58;;;17.40;99.90;;;;;;5027782;28;20050;-92
2022/09/12 08:44:34;;;;;;;34.67;30.90;;;17.40;99.90;;;;;;4978695;28;20049;-91
2022/09/12 08:47:20;;;;;;;36.08;30.80;;;17.50;99.90;;;;;;5006380;28;20135;-91
2022/09/12 08:49:55;;;;;;;37.13;30.45;;;17.60;99.90;;;;;;5008838;28;20693;-90
2022/09/12 08:52:27;;;;;;;34.60;30.70;;;17.60;99.90;;;;;;5007355;28;20050;-91
2022/09/12 08:54:55;;;;;;;39.15;31.55;;;17.70;99.90;;;;;;5007760;28;20455;-91
2022/09/12 08:57:21;;;;;;;37.25;30.58;;;17.80;99.90;;;;;;5017345;28;20117;-92
2022/09/12 08:59:48;;;;;;;40.80;31.92;;;17.90;99.90;;;;;;5012061;28;20061;-92
2022/09/12 09:02:51;;;;;;;39.88;32.67;;;17.90;99.90;;;;;;5005818;28;20042;-91
2022/09/12 09:05:37;;;;;;;39.90;31.92;;;18.10;99.90;;;;;;4973348;28;20061;-91
2022/09/12 09:08:25;;;;;;;47.17;35.17;;;18.20;99.90;;;;;;4975821;28;20058;-96
2022/09/12 09:19:27;;;;;;;39.80;33.80;;;18.60;99.90;;;;;;1236529;22;20299;-90
2022/09/12 09:22:08;;;;;;;40.70;33.53;;;18.70;99.90;;;;;;5013105;28;20052;-94
2022/09/12 09:24:39;;;;;;;;;;;18.70;99.90;;;;;;5035024;28;20484;-94
2022/09/12 09:27:23;;;;;;;42.80;34.40;;;18.70;99.90;;;;;;5037151;28;20043;-92
2022/09/12 09:29:53;;;;;;;42.58;35.20;;;18.80;99.90;;;;;;5040945;28;20041;-93
2022/09/12 09:32:36;;;;;;;47.50;36.97;;;18.80;99.90;;;;;;5038989;28;20041;-93
2022/09/12 09:35:14;;;;;;;45.90;37.47;;;18.80;99.90;;;;;;5038655;28;20437;-94
2022/09/12 09:37:43;;;;;;;46.10;36.58;;;18.90;99.90;;;;;;5030127;28;20052;-91
2022/09/12 09:40:17;;;;;;;42.92;35.97;;;18.90;99.90;;;;;;5036033;28;20757;-92
2022/09/12 09:42:45;;;;;;;44.38;35.40;;;19.00;99.90;;;;;;5022457;28;20049;-92
2022/09/12 09:45:20;;;;;;;42.65;35.63;;;19.00;99.90;;;;;;5027545;28;20563;-93
2022/09/12 09:47:58;;;;;;;43.35;34.20;;;19.10;99.90;;;;;;5031286;28;20076;-92
2022/09/12 09:50:24;;;;;;;44.00;35.05;;;19.10;99.90;;;;;;5033115;28;20080;-91
2022/09/12 09:52:51;;;;;;;43.63;33.53;;;19.20;99.90;;;;;;5012847;28;20092;-93
2022/09/12 09:55:24;;;;;;;42.05;32.53;;;19.20;99.90;;;;;;5047551;28;20049;-91
2022/09/12 09:57:51;;;;;;;45.08;32.60;;;19.30;99.90;;;;;;5039450;28;20108;-93
2022/09/12 10:00:26;;;;;;;41.55;31.95;;;19.40;99.90;;;;;;5033248;28;20060;-91
2022/09/12 10:03:08;;;;;;;43.95;33.35;;;19.50;99.90;;;;;;5014894;28;20033;-90
2022/09/12 10:06:19;;;;;;;38.17;30.52;;;19.50;99.90;;;;;;5028761;28;21331;-91
2022/09/12 10:08:46;;;;;;;36.15;29.98;;;19.60;99.90;;;;;;5026647;28;20407;-92
2022/09/12 10:11:14;;;;;;;34.70;29.55;;;19.70;99.90;;;;;;5028818;28;20045;-92
2022/09/12 10:13:55;;;;;;;38.63;30.65;;;19.70;99.90;;;;;;5014165;28;20038;-90
2022/09/12 10:16:48;;;;;;;35.90;29.20;;;19.70;99.90;;;;;;5014142;28;20042;-92
2022/09/12 10:19:25;;;;;;;35.00;27.77;;;19.70;99.90;;;;;;5027131;28;20113;-89
2022/09/12 10:21:54;;;;;;;34.65;28.30;;;19.70;99.90;;;;;;5027826;28;20134;-92
2022/09/12 10:24:23;;;;;;;33.85;29.30;;;19.80;99.90;;;;;;5030656;28;20128;-90
2022/09/12 10:27:04;;;;;;;34.67;28.23;;;19.80;99.90;;;;;;5030617;28;20073;-94
2022/09/12 10:29:34;;;;;;;32.88;28.45;;;19.90;99.90;;;;;;5030400;28;20096;-90
2022/09/12 10:32:04;;;;;;;31.98;27.00;;;19.90;99.90;;;;;;5031611;28;20086;-94
2022/09/12 10:34:42;;;;;;;35.50;27.60;;;20.00;99.90;;;;;;5031917;28;20049;-91
2022/09/12 10:37:17;;;;;;;31.38;25.63;;;20.00;99.90;;;;;;5030757;28;20077;-91
2022/09/12 10:39:53;;;;;;;31.90;27.13;;;20.00;99.90;;;;;;5029075;28;20045;-92
2022/09/12 10:42:50;;;;;;;32.60;28.05;;;20.10;99.90;;;;;;5032346;28;20394;-90
2022/09/12 10:45:32;;;;;;;28.92;24.83;;;20.10;99.90;;;;;;5031413;28;20049;-94
2022/09/12 10:47:59;;;;;;;30.70;25.90;;;20.20;99.90;;;;;;5042818;28;20042;-93
2022/09/12 10:50:36;;;;;;;28.42;24.33;;;20.20;99.90;;;;;;5030686;28;20417;-92
2022/09/12 10:53:31;;;;;;;29.67;23.73;;;20.30;99.90;;;;;;5013725;28;20042;-92
2022/09/12 10:56:10;;;;;;;28.15;23.10;;;20.30;99.90;;;;;;5031011;28;20132;-91
2022/09/12 10:58:54;;;;;;;30.00;25.45;;;20.40;99.90;;;;;;5039070;28;20093;-93
2022/09/12 11:01:35;;;;;;;29.65;24.02;;;20.40;99.90;;;;;;5033863;28;20486;-92
2022/09/12 11:04:12;;;;;;;28.23;23.83;;;20.40;99.90;;;;;;5030487;28;20060;-93
2022/09/12 11:06:45;;;;;;;25.88;21.00;;;20.50;99.90;;;;;;5030629;28;20053;-95
2022/09/12 11:09:38;;;;;;;27.02;22.00;;;20.50;99.90;;;;;;5031225;28;20406;-93
2022/09/12 11:12:22;;;;;;;26.73;21.90;;;20.60;99.90;;;;;;5033505;28;20110;-90
2022/09/12 11:15:11;;;;;;;25.08;20.48;;;20.60;99.90;;;;;;5030825;28;20449;-91
2022/09/12 11:18:04;;;;;;;25.38;20.67;;;20.60;99.90;;;;;;5030784;28;20100;-92
2022/09/12 11:20:45;;;;;;;26.60;21.33;;;20.70;99.90;;;;;;5025428;28;20152;-94
2022/09/12 11:23:59;;;;;;;23.38;19.48;;;20.70;99.90;;;;;;5030081;28;20056;-95
2022/09/12 11:26:43;;;;;;;23.60;19.33;;;20.80;99.90;;;;;;4987067;28;20050;-96
2022/09/12 11:29:11;;;;;;;23.98;18.80;;;20.90;99.90;;;;;;4989211;28;20560;-94
2022/09/12 11:32:00;;;;;;;24.30;20.45;;;21.00;99.90;;;;;;4989654;28;20050;-91
2022/09/12 11:34:45;;;;;;;26.45;22.25;;;21.00;99.90;;;;;;4973076;28;20376;-93
2022/09/12 11:37:39;;;;;;;25.88;21.85;;;21.10;99.90;;;;;;4966292;28;20058;-91
2022/09/12 11:40:19;;;;;;;24.42;20.00;;;21.20;99.90;;;;;;4939973;28;20141;-91
2022/09/12 11:42:48;;;;;;;20.95;18.50;;;21.20;99.90;;;;;;4981979;28;20141;-92
2022/09/12 11:45:25;;;;;;;23.33;19.42;;;21.20;99.90;;;;;;4970966;28;20043;-94
2022/09/12 11:47:54;;;;;;;24.90;20.13;;;21.30;99.90;;;;;;4985627;28;20098;-94
2022/09/12 11:50:28;;;;;;;23.80;19.20;;;21.20;99.90;;;;;;4954997;28;20058;-95
2022/09/12 11:53:24;;;;;;;22.55;18.77;;;21.30;99.90;;;;;;4989590;28;20078;-94
2022/09/12 11:56:08;;;;;;;24.23;19.77;;;21.30;99.90;;;;;;4961914;28;20123;-90
2022/09/12 11:58:36;;;;;;;22.00;18.08;;;21.30;99.90;;;;;;4981316;28;20055;-92
2022/09/12 12:01:16;;;;;;;23.83;20.38;;;21.40;99.90;;;;;;4972944;28;20312;-91
2022/09/12 12:03:44;;;;;;;23.67;20.10;;;21.40;99.90;;;;;;5027831;28;20398;-93
2022/09/12 12:06:14;;;;;;;25.67;21.63;;;21.50;99.90;;;;;;5027701;28;20037;-91
2022/09/12 12:08:42;;;;;;;26.67;22.35;;;21.50;99.90;;;;;;5012810;28;20049;-89
2022/09/12 12:11:10;;;;;;;26.42;22.02;;;21.60;99.90;;;;;;5041451;28;20048;-93
2022/09/12 12:13:42;;;;;;;23.92;19.15;;;21.60;99.90;;;;;;5036580;28;20056;-91
2022/09/12 12:16:13;;;;;;;21.02;17.08;;;21.60;99.90;;;;;;5031673;28;20398;-92
2022/09/12 12:18:40;;;;;;;21.15;17.85;;;21.60;99.90;;;;;;5019768;28;20038;-91
2022/09/12 12:21:43;;;;;;;20.27;16.45;;;21.70;99.90;;;;;;5032301;28;20065;-91
2022/09/12 12:24:08;;;;;;;19.70;15.57;;;21.70;99.90;;;;;;5020524;28;20127;-92
2022/09/12 12:26:51;;;;;;;18.88;15.63;;;21.70;99.90;;;;;;5037608;28;20156;-94
2022/09/12 12:29:16;;;;;;;18.13;14.27;;;21.70;99.90;;;;;;5028574;28;20099;-94
2022/09/12 12:32:04;;;;;;;20.20;16.95;;;21.70;99.90;;;;;;5030306;28;20065;-96
2022/09/12 12:34:39;;;;;;;20.70;17.05;;;21.70;99.90;;;;;;5055693;23;20073;-96
2022/09/12 12:37:28;;;;;;;21.45;16.88;;;21.70;99.90;;;;;;5016349;28;20148;-94
2022/09/12 12:40:06;;;;;;;21.40;16.67;;;21.70;99.90;;;;;;4996273;28;20049;-92
2022/09/12 12:42:34;;;;;;;17.02;14.10;;;21.80;99.90;;;;;;4994608;28;20077;-93
2022/09/12 12:45:22;;;;;;;14.07;11.40;;;21.80;99.90;;;;;;4999986;28;20038;-93
2022/09/12 12:47:54;;;;;;;16.33;12.82;;;21.90;99.90;;;;;;5011334;28;20095;-95
2022/09/12 12:50:25;;;;;;;15.95;10.90;;;22.00;99.90;;;;;;5017113;28;20103;-95
2022/09/12 12:52:58;;;;;;;15.70;11.27;;;22.00;99.90;;;;;;5015572;28;20042;-96
2022/09/12 12:55:49;;;;;;;14.60;11.43;;;22.00;99.90;;;;;;5044983;23;20060;-95
2022/09/12 12:58:32;;;;;;;;;;;22.00;99.90;;;;;;5005545;28;20054;-94
2022/09/12 13:01:17;;;;;;;11.35;8.27;;;22.00;99.90;;;;;;5007877;28;20276;-94
2022/09/12 13:03:52;;;;;;;11.73;6.95;;;22.10;99.90;;;;;;4992701;28;20038;-94
2022/09/12 13:06:38;;;;;;;10.10;6.88;;;22.20;99.90;;;;;;5008759;28;20050;-94